Time;durP1;ratioP1;P1;durP2;ratioP2;P2;SDS_P1;SDS_P2;PMS_P1;PMS_P2;Temp;Humidity;BMP_temperature;BMP_pressure;BME280_temperature;BME280_humidity;BME280_pressure;Samples;Min_cycle;Max_cycle;Signal;HPM_P1;HPM_P2
2023/08/31 00:00:35;;;;;;;2.63;2.42;;;;;;;;;;5009412;28;100730;-73
2023/08/31 00:03:02;;;;;;;1.98;1.88;;;;;;;;;;5008763;28;100367;-72
2023/08/31 00:05:30;;;;;;;2.10;2.00;;;;;;;;;;4995516;28;100561;-73
2023/08/31 00:07:57;;;;;;;2.70;2.20;;;;;;;;;;4989372;28;99880;-72
2023/08/31 00:10:23;;;;;;;3.17;2.47;;;;;;;;;;4988472;28;98976;-72
2023/08/31 00:12:50;;;;;;;2.70;2.30;;;;;;;;;;4990064;28;100282;-72
2023/08/31 00:15:16;;;;;;;4.88;2.45;;;;;;;;;;4989160;28;100058;-72
2023/08/31 00:17:43;;;;;;;4.18;2.50;;;;;;;;;;5006758;28;98901;-73
2023/08/31 00:20:11;;;;;;;2.67;2.47;;;;;;;;;;5012673;28;102034;-72
2023/08/31 00:22:38;;;;;;;8.48;2.97;;;;;;;;;;5008774;28;100169;-73
2023/08/31 00:25:08;;;;;;;3.17;2.22;;;;;;;;;;5008267;28;99985;-72
2023/08/31 00:27:36;;;;;;;5.07;2.70;;;;;;;;;;5009105;28;99950;-72
2023/08/31 00:30:08;;;;;;;3.05;2.58;;;;;;;;;;4992204;28;98822;-72
2023/08/31 00:32:35;;;;;;;8.23;3.30;;;;;;;;;;4989398;28;99335;-72
2023/08/31 00:35:03;;;;;;;5.43;3.33;;;;;;;;;;4989046;28;99323;-72
2023/08/31 00:37:29;;;;;;;4.45;2.75;;;;;;;;;;4986987;28;99515;-73
2023/08/31 00:39:56;;;;;;;3.78;3.30;;;;;;;;;;4990064;28;99395;-72
2023/08/31 00:42:24;;;;;;;7.05;3.10;;;;;;;;;;4992472;28;98922;-73
2023/08/31 00:44:52;;;;;;;2.65;2.38;;;;;;;;;;4986608;28;100246;-73
2023/08/31 00:47:19;;;;;;;2.63;2.45;;;;;;;;;;4987901;28;99277;-72
2023/08/31 00:49:46;;;;;;;5.05;2.63;;;;;;;;;;4987818;28;101802;-73
2023/08/31 00:52:13;;;;;;;6.40;2.58;;;;;;;;;;4988051;28;99435;-73
2023/08/31 00:54:42;;;;;;;3.85;2.50;;;;;;;;;;4989123;28;98897;-72
2023/08/31 00:57:09;;;;;;;2.92;2.30;;;;;;;;;;4987637;28;100118;-73
2023/08/31 00:59:36;;;;;;;3.70;2.90;;;;;;;;;;4988157;28;99313;-72
2023/08/31 01:02:07;;;;;;;4.35;3.00;;;;;;;;;;4988865;28;99006;-72
2023/08/31 01:04:41;;;;;;;4.45;3.42;;;;;;;;;;4972350;28;98892;-72
2023/08/31 01:07:21;;;;;;;3.60;3.15;;;;;;;;;;4968231;28;100034;-72
2023/08/31 01:10:04;;;;;;;11.27;3.05;;;;;;;;;;4969102;28;99117;-73
2023/08/31 01:12:33;;;;;;;5.93;3.35;;;;;;;;;;4966231;28;100645;-72
2023/08/31 01:15:04;;;;;;;7.07;3.08;;;;;;;;;;4968773;28;98903;-72
2023/08/31 01:17:31;;;;;;;4.20;3.22;;;;;;;;;;4985137;28;100198;-72
2023/08/31 01:19:59;;;;;;;2.97;2.75;;;;;;;;;;4994666;28;100179;-73
2023/08/31 01:22:37;;;;;;;6.75;2.97;;;;;;;;;;5008703;28;98849;-74
2023/08/31 01:25:05;;;;;;;4.60;3.10;;;;;;;;;;5011987;28;98648;-73
2023/08/31 01:27:32;;;;;;;4.15;3.33;;;;;;;;;;5007247;28;98842;-73
2023/08/31 01:29:58;;;;;;;13.68;3.17;;;;;;;;;;5007436;28;99267;-73
2023/08/31 01:32:25;;;;;;;6.45;3.15;;;;;;;;;;5007982;28;99316;-73
2023/08/31 01:34:51;;;;;;;5.70;2.83;;;;;;;;;;5007384;28;99992;-73
2023/08/31 01:37:26;;;;;;;3.75;2.70;;;;;;;;;;5006406;28;99272;-72
2023/08/31 01:39:55;;;;;;;3.90;2.50;;;;;;;;;;5008519;28;99099;-73
2023/08/31 01:42:24;;;;;;;10.38;3.40;;;;;;;;;;5007015;28;98821;-73
2023/08/31 01:44:51;;;;;;;4.13;2.92;;;;;;;;;;5007244;28;99495;-72
2023/08/31 01:47:19;;;;;;;3.67;3.40;;;;;;;;;;5009045;28;100263;-73
2023/08/31 01:49:45;;;;;;;4.93;3.72;;;;;;;;;;5006840;28;99394;-72
2023/08/31 01:52:12;;;;;;;3.22;3.00;;;;;;;;;;5007952;28;99196;-73
2023/08/31 01:54:38;;;;;;;4.32;3.72;;;;;;;;;;5005665;28;100115;-72
2023/08/31 01:57:06;;;;;;;8.60;3.30;;;;;;;;;;5006742;28;98430;-72
2023/08/31 01:59:42;;;;;;;3.20;2.88;;;;;;;;;;5006325;28;100216;-72
2023/08/31 02:02:08;;;;;;;4.70;3.25;;;;;;;;;;5005407;28;101077;-73
2023/08/31 02:04:35;;;;;;;9.75;3.22;;;;;;;;;;5000170;28;100918;-73
2023/08/31 02:07:02;;;;;;;4.78;3.33;;;;;;;;;;4988043;28;99348;-73
2023/08/31 02:09:29;;;;;;;5.68;3.53;;;;;;;;;;4989611;28;99123;-73
2023/08/31 02:11:55;;;;;;;4.40;3.15;;;;;;;;;;4988739;28;99259;-73
2023/08/31 02:14:25;;;;;;;3.35;3.10;;;;;;;;;;4985771;28;101316;-73
2023/08/31 02:16:52;;;;;;;6.18;3.78;;;;;;;;;;4996593;28;99089;-72
2023/08/31 02:19:19;;;;;;;4.18;3.88;;;;;;;;;;5005964;28;98781;-72
2023/08/31 02:21:45;;;;;;;8.13;4.10;;;;;;;;;;5006174;28;101861;-72
2023/08/31 02:24:12;;;;;;;7.93;4.10;;;;;;;;;;5006360;28;99055;-73
2023/08/31 02:26:40;;;;;;;5.22;4.07;;;;;;;;;;5006963;28;100884;-72
2023/08/31 02:29:06;;;;;;;5.47;4.28;;;;;;;;;;4990469;28;99947;-72
2023/08/31 02:31:33;;;;;;;9.52;4.10;;;;;;;;;;4988531;28;99192;-71
2023/08/31 02:33:59;;;;;;;4.45;4.03;;;;;;;;;;4987574;28;98965;-72
2023/08/31 02:36:26;;;;;;;4.90;4.50;;;;;;;;;;4987409;28;98949;-73
2023/08/31 02:38:53;;;;;;;5.07;4.35;;;;;;;;;;4986945;28;99730;-72
2023/08/31 02:41:19;;;;;;;4.72;4.25;;;;;;;;;;4987034;28;98927;-72
2023/08/31 02:43:46;;;;;;;4.00;3.65;;;;;;;;;;4987140;28;99015;-72
2023/08/31 02:46:12;;;;;;;4.18;3.88;;;;;;;;;;4987471;28;99062;-72
2023/08/31 02:48:39;;;;;;;4.60;4.20;;;;;;;;;;4987402;28;100140;-72
2023/08/31 02:51:07;;;;;;;7.90;4.68;;;;;;;;;;4984572;28;101490;-72
2023/08/31 02:53:34;;;;;;;7.18;4.93;;;;;;;;;;4990435;28;99102;-71
2023/08/31 02:56:00;;;;;;;8.20;5.35;;;;;;;;;;4986677;28;99796;-73
2023/08/31 02:58:28;;;;;;;8.80;5.40;;;;;;;;;;4984491;28;101449;-72
2023/08/31 03:00:55;;;;;;;6.00;5.45;;;;;;;;;;4987063;28;98981;-72
2023/08/31 03:03:22;;;;;;;11.82;5.22;;;;;;;;;;4988376;28;98859;-72
2023/08/31 03:05:54;;;;;;;11.48;6.07;;;;;;;;;;4986214;28;99718;-72
2023/08/31 03:08:21;;;;;;;8.93;5.50;;;;;;;;;;4986186;28;99852;-71
2023/08/31 03:10:47;;;;;;;6.05;5.55;;;;;;;;;;4987100;28;99454;-72
2023/08/31 03:13:13;;;;;;;9.38;5.30;;;;;;;;;;4985707;28;100197;-73
2023/08/31 03:15:40;;;;;;;8.38;5.38;;;;;;;;;;4988686;28;102039;-74
2023/08/31 03:18:06;;;;;;;11.77;5.20;;;;;;;;;;4987708;28;100254;-73
2023/08/31 03:20:33;;;;;;;6.38;4.38;;;;;;;;;;4987822;28;99192;-73
2023/08/31 03:22:59;;;;;;;6.43;3.67;;;;;;;;;;4991954;28;99078;-72
2023/08/31 03:25:27;;;;;;;3.95;3.40;;;;;;;;;;4991386;28;99725;-74
2023/08/31 03:27:53;;;;;;;3.15;2.95;;;;;;;;;;4988570;28;100371;-72
2023/08/31 03:30:20;;;;;;;3.38;3.08;;;;;;;;;;4988274;28;100823;-72
2023/08/31 03:32:47;;;;;;;4.10;3.13;;;;;;;;;;4988599;28;101554;-72
2023/08/31 03:35:14;;;;;;;2.95;2.70;;;;;;;;;;4992348;28;101617;-72
2023/08/31 03:37:40;;;;;;;3.30;3.00;;;;;;;;;;4988789;28;100949;-72
2023/08/31 03:40:07;;;;;;;3.90;2.60;;;;;;;;;;4987364;28;100806;-72
2023/08/31 03:42:34;;;;;;;3.63;2.80;;;;;;;;;;4988441;28;102033;-72
2023/08/31 03:45:03;;;;;;;3.25;2.95;;;;;;;;;;4989769;28;100995;-72
2023/08/31 03:47:30;;;;;;;3.45;2.55;;;;;;;;;;4988827;28;98689;-72
2023/08/31 03:49:56;;;;;;;3.80;3.47;;;;;;;;;;4989893;28;99850;-72
2023/08/31 03:52:23;;;;;;;4.05;2.95;;;;;;;;;;4988845;28;102380;-73
2023/08/31 03:54:51;;;;;;;2.70;2.50;;;;;;;;;;4989718;28;98887;-72
2023/08/31 03:57:17;;;;;;;5.13;2.58;;;;;;;;;;4992591;28;100154;-73
2023/08/31 03:59:44;;;;;;;4.65;2.70;;;;;;;;;;4988626;28;98927;-73
2023/08/31 04:02:11;;;;;;;2.92;1.95;;;;;;;;;;4989421;28;99884;-73
2023/08/31 04:04:38;;;;;;;4.57;2.17;;;;;;;;;;4986565;28;102690;-72
2023/08/31 04:07:06;;;;;;;6.25;2.00;;;;;;;;;;4988370;28;101582;-72
2023/08/31 04:09:33;;;;;;;5.40;2.05;;;;;;;;;;4987640;28;101566;-72
2023/08/31 04:11:59;;;;;;;3.30;2.13;;;;;;;;;;4989835;28;99112;-73
2023/08/31 04:14:29;;;;;;;4.80;2.65;;;;;;;;;;4987851;28;98901;-72
2023/08/31 04:16:56;;;;;;;4.25;3.40;;;;;;;;;;4999715;28;100344;-72
2023/08/31 04:19:23;;;;;;;3.38;2.75;;;;;;;;;;5012356;28;98926;-73
2023/08/31 04:21:49;;;;;;;4.90;3.50;;;;;;;;;;5009777;28;99965;-72
2023/08/31 04:24:17;;;;;;;5.85;2.80;;;;;;;;;;5008373;28;100423;-73
2023/08/31 04:26:44;;;;;;;3.85;2.90;;;;;;;;;;5003926;28;99984;-72
2023/08/31 04:29:11;;;;;;;5.47;3.33;;;;;;;;;;4988525;28;99220;-71
2023/08/31 04:31:39;;;;;;;4.53;3.15;;;;;;;;;;4989106;28;100164;-72
2023/08/31 04:34:05;;;;;;;4.97;3.05;;;;;;;;;;4989230;28;99854;-72
2023/08/31 04:36:32;;;;;;;6.97;3.63;;;;;;;;;;4988058;28;99376;-73
2023/08/31 04:38:58;;;;;;;7.78;3.97;;;;;;;;;;4989030;28;100211;-72
2023/08/31 04:41:25;;;;;;;6.47;3.50;;;;;;;;;;4991866;28;98872;-73
2023/08/31 04:43:53;;;;;;;3.55;3.28;;;;;;;;;;4988798;28;100376;-72
2023/08/31 04:46:19;;;;;;;9.68;4.10;;;;;;;;;;4988915;28;100066;-71
2023/08/31 04:48:46;;;;;;;4.95;3.80;;;;;;;;;;4989164;28;99269;-73
2023/08/31 04:51:28;;;;;;;6.15;3.80;;;;;;;;;;4987724;28;99242;-72
2023/08/31 04:53:55;;;;;;;9.27;3.95;;;;;;;;;;4989230;28;99248;-72
2023/08/31 04:56:21;;;;;;;5.10;3.80;;;;;;;;;;4988579;28;100614;-73
2023/08/31 04:58:48;;;;;;;4.22;3.30;;;;;;;;;;4987861;28;100161;-73
2023/08/31 05:01:15;;;;;;;4.35;3.85;;;;;;;;;;4988864;28;100284;-72
2023/08/31 05:03:42;;;;;;;12.90;3.65;;;;;;;;;;4992053;28;99823;-73
2023/08/31 05:06:09;;;;;;;5.97;2.83;;;;;;;;;;4987727;28;99439;-73
2023/08/31 05:08:35;;;;;;;6.07;3.05;;;;;;;;;;4988260;28;98903;-73
2023/08/31 05:11:02;;;;;;;5.10;2.72;;;;;;;;;;4987911;28;99642;-73
2023/08/31 05:13:28;;;;;;;5.15;3.30;;;;;;;;;;4970827;28;99951;-73
2023/08/31 05:15:55;;;;;;;4.30;2.72;;;;;;;;;;4969416;28;99956;-73
2023/08/31 05:18:23;;;;;;;4.00;2.03;;;;;;;;;;4969977;28;101015;-74
2023/08/31 05:20:49;;;;;;;5.47;2.47;;;;;;;;;;4976072;28;98599;-73
2023/08/31 05:23:15;;;;;;;4.95;2.03;;;;;;;;;;4978626;28;100184;-72
2023/08/31 05:25:43;;;;;;;3.13;2.13;;;;;;;;;;4982472;28;99779;-72
2023/08/31 05:28:09;;;;;;;2.95;2.03;;;;;;;;;;4975456;28;99722;-72
2023/08/31 05:30:36;;;;;;;7.63;2.40;;;;;;;;;;4978011;28;99248;-72
2023/08/31 05:33:03;;;;;;;2.97;2.10;;;;;;;;;;4973213;28;100194;-72
2023/08/31 05:35:30;;;;;;;4.85;2.63;;;;;;;;;;4978174;28;99838;-72
2023/08/31 05:37:57;;;;;;;7.20;2.28;;;;;;;;;;4978557;28;100389;-73
2023/08/31 05:40:23;;;;;;;6.78;2.50;;;;;;;;;;4976876;28;101716;-72
2023/08/31 05:42:50;;;;;;;3.35;2.55;;;;;;;;;;4975073;28;100805;-72
2023/08/31 05:45:16;;;;;;;4.78;2.30;;;;;;;;;;4977771;28;100548;-72
2023/08/31 05:47:43;;;;;;;3.35;2.00;;;;;;;;;;4975041;28;100546;-73
2023/08/31 05:50:09;;;;;;;6.15;2.58;;;;;;;;;;4979921;28;100572;-72
2023/08/31 05:52:37;;;;;;;4.70;2.97;;;;;;;;;;4977823;28;100315;-72
2023/08/31 05:55:04;;;;;;;3.47;2.20;;;;;;;;;;4975082;28;100323;-73
2023/08/31 05:57:31;;;;;;;3.22;2.35;;;;;;;;;;4973510;28;100258;-72
2023/08/31 05:59:57;;;;;;;13.57;3.53;;;;;;;;;;4977095;28;100526;-72
2023/08/31 06:02:24;;;;;;;8.18;2.72;;;;;;;;;;4977921;28;99121;-71
2023/08/31 06:04:51;;;;;;;4.63;2.50;;;;;;;;;;4974209;28;100260;-72
2023/08/31 06:07:17;;;;;;;10.48;2.90;;;;;;;;;;4982671;28;100931;-73
2023/08/31 06:09:43;;;;;;;9.95;2.92;;;;;;;;;;4976630;28;100238;-72
2023/08/31 06:12:10;;;;;;;4.60;2.78;;;;;;;;;;4976672;28;100394;-72
2023/08/31 06:14:36;;;;;;;7.05;2.67;;;;;;;;;;4973565;28;99258;-72
2023/08/31 06:17:03;;;;;;;4.15;3.08;;;;;;;;;;4980061;28;100115;-73
2023/08/31 06:19:29;;;;;;;10.70;3.20;;;;;;;;;;4979589;28;100249;-73
2023/08/31 06:21:56;;;;;;;2.42;2.25;;;;;;;;;;4979866;28;99987;-72
2023/08/31 06:24:22;;;;;;;6.35;1.85;;;;;;;;;;4978814;28;99713;-72
2023/08/31 06:26:49;;;;;;;6.57;2.67;;;;;;;;;;4975951;28;100077;-73
2023/08/31 06:29:15;;;;;;;8.43;2.83;;;;;;;;;;4976541;28;100220;-72
2023/08/31 06:31:41;;;;;;;4.68;2.15;;;;;;;;;;4973053;28;101009;-73
2023/08/31 06:34:08;;;;;;;5.10;2.92;;;;;;;;;;4972076;28;100834;-72
2023/08/31 06:36:34;;;;;;;7.38;3.50;;;;;;;;;;4973231;28;99604;-72
2023/08/31 06:39:01;;;;;;;7.78;3.92;;;;;;;;;;4975939;28;101738;-73
2023/08/31 06:41:27;;;;;;;4.05;2.25;;;;;;;;;;4975158;28;101864;-73
2023/08/31 06:43:53;;;;;;;8.63;3.55;;;;;;;;;;4974125;28;100264;-71
2023/08/31 06:46:20;;;;;;;7.50;2.88;;;;;;;;;;4973889;28;100328;-72
2023/08/31 06:48:50;;;;;;;4.80;3.00;;;;;;;;;;4976597;28;99165;-72
2023/08/31 06:51:17;;;;;;;4.65;3.10;;;;;;;;;;4982446;28;99324;-72
2023/08/31 06:53:43;;;;;;;3.95;2.40;;;;;;;;;;4973058;28;101882;-73
2023/08/31 06:56:10;;;;;;;2.47;1.85;;;;;;;;;;4977336;28;101340;-72
2023/08/31 06:58:36;;;;;;;3.35;2.38;;;;;;;;;;4975817;28;99889;-72
2023/08/31 07:01:05;;;;;;;2.80;1.35;;;;;;;;;;4970394;28;100430;-71
2023/08/31 07:03:32;;;;;;;3.17;1.55;;;;;;;;;;4971249;28;100170;-71
2023/08/31 07:05:59;;;;;;;3.55;1.23;;;;;;;;;;4970558;28;99728;-75
2023/08/31 07:08:25;;;;;;;8.13;2.50;;;;;;;;;;4976412;28;99104;-72
2023/08/31 07:10:52;;;;;;;3.97;1.30;;;;;;;;;;4965852;28;100421;-72
2023/08/31 07:13:18;;;;;;;7.43;1.55;;;;;;;;;;4971747;28;99981;-72
2023/08/31 07:15:45;;;;;;;5.03;1.42;;;;;;;;;;4968402;28;99621;-73
2023/08/31 07:18:12;;;;;;;3.00;1.70;;;;;;;;;;4968488;28;100249;-74
2023/08/31 07:20:38;;;;;;;7.15;1.98;;;;;;;;;;4968228;28;100060;-74
2023/08/31 07:23:04;;;;;;;4.90;2.13;;;;;;;;;;4975798;28;100045;-73
2023/08/31 07:25:31;;;;;;;3.33;1.73;;;;;;;;;;4970700;28;99886;-71
2023/08/31 07:27:57;;;;;;;4.68;1.98;;;;;;;;;;4973314;28;99827;-71
2023/08/31 07:30:24;;;;;;;8.05;2.42;;;;;;;;;;4979653;28;100242;-71
2023/08/31 07:32:50;;;;;;;4.53;2.50;;;;;;;;;;4976065;28;100167;-72
2023/08/31 07:35:17;;;;;;;4.28;2.88;;;;;;;;;;4972906;28;100355;-73
2023/08/31 07:37:43;;;;;;;6.05;2.40;;;;;;;;;;4972319;28;99943;-73
2023/08/31 07:40:10;;;;;;;1.85;1.75;;;;;;;;;;4965998;28;99211;-72
2023/08/31 07:42:36;;;;;;;2.33;1.90;;;;;;;;;;4967695;28;100089;-72
2023/08/31 07:45:05;;;;;;;2.33;2.08;;;;;;;;;;4968491;28;100236;-72
2023/08/31 07:47:31;;;;;;;6.82;2.58;;;;;;;;;;4967170;28;100725;-73
2023/08/31 07:49:58;;;;;;;3.90;2.28;;;;;;;;;;4969233;28;100027;-72
2023/08/31 07:52:24;;;;;;;6.10;2.40;;;;;;;;;;4974230;28;100945;-73
2023/08/31 07:54:51;;;;;;;8.68;2.80;;;;;;;;;;4976667;28;99297;-73
2023/08/31 07:57:17;;;;;;;5.90;2.50;;;;;;;;;;4972960;28;100153;-73
2023/08/31 07:59:44;;;;;;;5.90;2.20;;;;;;;;;;4986133;28;100589;-73
2023/08/31 08:02:10;;;;;;;4.03;2.05;;;;;;;;;;4980089;28;99576;-72
2023/08/31 08:04:36;;;;;;;7.50;2.00;;;;;;;;;;4969921;28;99896;-72
2023/08/31 08:07:03;;;;;;;5.82;2.33;;;;;;;;;;4973022;28;100064;-72
2023/08/31 08:09:30;;;;;;;6.30;2.20;;;;;;;;;;4970321;28;101254;-71
2023/08/31 08:11:56;;;;;;;5.70;2.25;;;;;;;;;;4968922;28;100150;-71
2023/08/31 08:14:22;;;;;;;5.30;2.03;;;;;;;;;;4968923;28;100507;-71
2023/08/31 08:16:49;;;;;;;2.60;1.70;;;;;;;;;;4975546;28;102506;-72
2023/08/31 08:19:20;;;;;;;6.45;2.13;;;;;;;;;;4976402;28;100304;-72
2023/08/31 08:21:47;;;;;;;6.18;2.08;;;;;;;;;;4971719;28;100429;-72
2023/08/31 08:24:13;;;;;;;3.42;1.83;;;;;;;;;;4971880;28;99752;-72
2023/08/31 08:26:39;;;;;;;2.83;1.70;;;;;;;;;;4975180;28;100003;-72
2023/08/31 08:29:07;;;;;;;4.72;2.78;;;;;;;;;;4973155;28;99531;-72
2023/08/31 08:31:34;;;;;;;7.00;2.30;;;;;;;;;;4976643;28;100731;-72
2023/08/31 08:34:01;;;;;;;6.13;2.30;;;;;;;;;;4979991;28;101361;-72
2023/08/31 08:36:27;;;;;;;4.30;2.35;;;;;;;;;;4975142;28;100778;-72
2023/08/31 08:38:54;;;;;;;4.55;2.35;;;;;;;;;;4988234;28;99107;-72
2023/08/31 08:41:22;;;;;;;5.50;2.83;;;;;;;;;;4988614;28;99295;-71
2023/08/31 08:43:50;;;;;;;6.88;2.70;;;;;;;;;;4983343;28;100144;-72
2023/08/31 08:46:17;;;;;;;4.07;2.42;;;;;;;;;;4972412;28;99101;-71
2023/08/31 08:48:45;;;;;;;2.80;2.40;;;;;;;;;;4980801;28;99525;-72
2023/08/31 08:51:12;;;;;;;6.90;2.97;;;;;;;;;;4985428;28;99276;-72
2023/08/31 08:53:43;;;;;;;3.80;2.50;;;;;;;;;;4987969;28;100386;-72
2023/08/31 08:56:09;;;;;;;5.70;2.38;;;;;;;;;;4971362;28;101011;-71
2023/08/31 08:58:36;;;;;;;4.45;2.38;;;;;;;;;;4972428;28;99763;-72
2023/08/31 09:01:03;;;;;;;4.30;2.63;;;;;;;;;;4991081;28;101101;-72
2023/08/31 09:03:30;;;;;;;3.15;2.47;;;;;;;;;;4987103;28;99396;-72
2023/08/31 09:05:59;;;;;;;5.65;1.90;;;;;;;;;;4984078;28;101385;-72
2023/08/31 09:08:26;;;;;;;4.13;2.25;;;;;;;;;;4971429;28;99554;-72
2023/08/31 09:10:55;;;;;;;3.50;2.10;;;;;;;;;;4973914;28;99227;-73
2023/08/31 09:13:25;;;;;;;4.00;2.40;;;;;;;;;;4983893;28;99891;-72
2023/08/31 09:15:52;;;;;;;4.57;2.20;;;;;;;;;;4972924;28;99476;-73
2023/08/31 09:18:28;;;;;;;3.35;2.10;;;;;;;;;;4984620;28;99974;-73
2023/08/31 09:20:56;;;;;;;5.72;2.00;;;;;;;;;;4989324;28;100144;-72
2023/08/31 09:23:23;;;;;;;7.13;1.90;;;;;;;;;;4992953;28;99988;-72
2023/08/31 09:25:53;;;;;;;4.70;1.65;;;;;;;;;;4990045;28;100736;-74
2023/08/31 09:28:20;;;;;;;6.45;1.60;;;;;;;;;;4971304;28;99163;-72
2023/08/31 09:30:48;;;;;;;3.08;1.73;;;;;;;;;;4987173;28;100166;-73
2023/08/31 09:33:20;;;;;;;5.93;1.65;;;;;;;;;;4990460;28;99053;-72
2023/08/31 09:35:50;;;;;;;5.57;1.90;;;;;;;;;;4987669;28;99526;-74
2023/08/31 09:38:18;;;;;;;6.00;1.48;;;;;;;;;;4978815;28;101044;-73
2023/08/31 09:40:44;;;;;;;4.35;1.30;;;;;;;;;;4979645;28;99873;-73
2023/08/31 09:43:12;;;;;;;4.18;0.95;;;;;;;;;;4972376;28;100285;-73
2023/08/31 09:45:39;;;;;;;2.67;1.33;;;;;;;;;;4974369;28;99288;-72
2023/08/31 09:48:13;;;;;;;5.03;1.35;;;;;;;;;;4972283;28;101620;-75
2023/08/31 09:50:41;;;;;;;6.72;1.48;;;;;;;;;;4978745;28;98927;-72
2023/08/31 09:53:09;;;;;;;4.85;1.55;;;;;;;;;;4974615;28;99226;-72
2023/08/31 09:55:38;;;;;;;8.35;1.42;;;;;;;;;;4974162;28;100236;-73
2023/08/31 09:58:06;;;;;;;6.25;1.20;;;;;;;;;;4974965;28;100877;-71
2023/08/31 10:00:41;;;;;;;6.43;1.60;;;;;;;;;;4968132;28;100250;-74
2023/08/31 10:03:08;;;;;;;9.90;1.48;;;;;;;;;;4970601;28;100459;-72
2023/08/31 10:05:35;;;;;;;4.22;1.55;;;;;;;;;;4980467;28;100077;-72
2023/08/31 10:08:02;;;;;;;3.08;1.05;;;;;;;;;;4970220;28;100434;-72
2023/08/31 10:10:29;;;;;;;4.85;1.23;;;;;;;;;;4972489;28;100491;-72
2023/08/31 10:12:57;;;;;;;2.55;0.90;;;;;;;;;;4969008;28;101170;-70
2023/08/31 10:15:26;;;;;;;4.22;1.27;;;;;;;;;;4970123;28;100289;-72
2023/08/31 10:17:52;;;;;;;14.18;1.73;;;;;;;;;;4975776;28;100291;-71
2023/08/31 10:20:19;;;;;;;6.75;1.35;;;;;;;;;;4972975;28;98944;-72
2023/08/31 10:22:45;;;;;;;7.35;1.35;;;;;;;;;;4973113;28;99302;-72
2023/08/31 10:25:12;;;;;;;4.38;1.13;;;;;;;;;;4972289;28;100113;-71
2023/08/31 10:27:39;;;;;;;6.43;1.02;;;;;;;;;;4975890;28;100180;-71
2023/08/31 10:30:16;;;;;;;3.75;1.55;;;;;;;;;;4974160;28;99498;-71
2023/08/31 10:32:42;;;;;;;26.58;2.65;;;;;;;;;;4971706;28;99090;-74
2023/08/31 10:35:09;;;;;;;4.43;0.90;;;;;;;;;;4978272;28;100257;-73
2023/08/31 10:37:36;;;;;;;2.28;1.05;;;;;;;;;;4970027;28;100029;-73
2023/08/31 10:40:12;;;;;;;3.22;1.42;;;;;;;;;;4969300;28;100896;-71
2023/08/31 10:42:42;;;;;;;1.73;0.85;;;;;;;;;;4973652;28;99420;-72
2023/08/31 10:45:09;;;;;;;0.90;0.60;;;;;;;;;;4971062;28;100213;-71
2023/08/31 10:47:41;;;;;;;4.05;0.70;;;;;;;;;;4986605;28;99107;-72
2023/08/31 10:50:22;;;;;;;3.25;1.00;;;;;;;;;;4983165;28;99439;-72
2023/08/31 10:52:49;;;;;;;4.63;0.90;;;;;;;;;;4968622;28;100224;-72
2023/08/31 10:55:16;;;;;;;3.78;1.20;;;;;;;;;;4970608;28;100144;-71
2023/08/31 10:57:42;;;;;;;4.32;1.13;;;;;;;;;;4973201;28;99478;-70
2023/08/31 11:00:10;;;;;;;1.20;0.85;;;;;;;;;;4970806;28;99139;-71
2023/08/31 11:02:38;;;;;;;4.13;0.90;;;;;;;;;;4971722;28;100289;-71
2023/08/31 11:05:06;;;;;;;0.88;0.73;;;;;;;;;;4968708;28;98772;-70
2023/08/31 11:07:35;;;;;;;4.13;1.58;;;;;;;;;;4978841;28;99905;-71
2023/08/31 11:10:17;;;;;;;1.35;0.70;;;;;;;;;;4969365;28;100407;-71
2023/08/31 11:12:45;;;;;;;1.95;1.10;;;;;;;;;;4975125;28;99457;-70
2023/08/31 11:15:13;;;;;;;0.50;0.50;;;;;;;;;;4971215;28;100300;-70
2023/08/31 11:17:40;;;;;;;2.90;0.60;;;;;;;;;;4969045;28;100403;-71
2023/08/31 11:20:09;;;;;;;3.83;0.63;;;;;;;;;;4971468;28;100559;-71
2023/08/31 11:22:40;;;;;;;2.38;1.08;;;;;;;;;;4971220;28;99563;-71
2023/08/31 11:25:08;;;;;;;3.65;1.00;;;;;;;;;;4970431;28;99547;-71
2023/08/31 11:27:34;;;;;;;1.58;1.00;;;;;;;;;;4972552;28;101563;-71
2023/08/31 11:30:01;;;;;;;2.88;1.10;;;;;;;;;;4971266;28;99488;-71
2023/08/31 11:32:27;;;;;;;2.90;0.90;;;;;;;;;;4972363;28;100292;-71
2023/08/31 11:34:54;;;;;;;1.38;0.60;;;;;;;;;;4971645;28;100188;-72
2023/08/31 11:37:20;;;;;;;2.20;0.85;;;;;;;;;;4970090;28;99795;-70
2023/08/31 11:39:53;;;;;;;1.25;0.63;;;;;;;;;;4972058;28;99216;-71
2023/08/31 11:42:21;;;;;;;1.75;0.80;;;;;;;;;;4973292;28;100821;-70
2023/08/31 11:44:51;;;;;;;4.75;1.55;;;;;;;;;;4984211;28;99058;-71
2023/08/31 11:47:17;;;;;;;2.30;0.60;;;;;;;;;;4982250;28;98572;-70
2023/08/31 11:49:45;;;;;;;2.05;0.68;;;;;;;;;;4979403;28;100355;-70
2023/08/31 11:52:12;;;;;;;5.00;0.85;;;;;;;;;;4978149;28;99725;-71
2023/08/31 11:54:39;;;;;;;0.52;0.52;;;;;;;;;;4992538;28;100125;-71
2023/08/31 11:57:09;;;;;;;1.15;0.85;;;;;;;;;;4990161;28;100195;-71
2023/08/31 11:59:37;;;;;;;2.75;0.73;;;;;;;;;;4988863;28;100959;-72
2023/08/31 12:02:08;;;;;;;1.45;0.90;;;;;;;;;;4989187;28;100183;-70
2023/08/31 12:04:43;;;;;;;0.70;0.70;;;;;;;;;;4987524;28;99987;-71
2023/08/31 12:07:10;;;;;;;2.17;0.88;;;;;;;;;;4988771;28;100178;-72
2023/08/31 12:09:37;;;;;;;0.88;0.60;;;;;;;;;;4988857;28;99212;-71
2023/08/31 12:12:07;;;;;;;1.50;0.80;;;;;;;;;;4981144;28;99062;-71
2023/08/31 12:14:36;;;;;;;1.48;0.90;;;;;;;;;;4968213;28;99069;-71
2023/08/31 12:17:05;;;;;;;1.13;0.70;;;;;;;;;;4984318;28;100211;-72
2023/08/31 12:19:32;;;;;;;2.30;1.00;;;;;;;;;;4989124;28;100840;-73
2023/08/31 12:21:59;;;;;;;0.90;0.60;;;;;;;;;;4988834;28;100374;-72
2023/08/31 12:24:25;;;;;;;1.00;0.80;;;;;;;;;;4989046;28;100012;-71
2023/08/31 12:26:55;;;;;;;1.13;1.00;;;;;;;;;;4986938;28;99139;-72
2023/08/31 12:29:22;;;;;;;5.63;0.80;;;;;;;;;;4987762;28;99720;-71
2023/08/31 12:31:49;;;;;;;4.60;0.82;;;;;;;;;;4989174;28;100038;-72
2023/08/31 12:34:16;;;;;;;0.80;0.70;;;;;;;;;;4980770;28;100360;-72
2023/08/31 12:36:42;;;;;;;2.47;0.98;;;;;;;;;;4968819;28;100280;-72
2023/08/31 12:39:09;;;;;;;1.15;0.73;;;;;;;;;;4977369;28;99279;-73
2023/08/31 12:41:36;;;;;;;1.77;0.88;;;;;;;;;;4987238;28;101476;-71
2023/08/31 12:44:03;;;;;;;2.78;0.90;;;;;;;;;;4989079;28;99895;-71
2023/08/31 12:46:30;;;;;;;0.80;0.80;;;;;;;;;;4988524;28;98804;-71
2023/08/31 12:48:57;;;;;;;3.13;0.60;;;;;;;;;;4988313;28;100125;-71
2023/08/31 12:51:24;;;;;;;3.53;0.98;;;;;;;;;;4987681;28;99990;-72
2023/08/31 12:53:50;;;;;;;1.75;0.90;;;;;;;;;;4988515;28;99895;-71
2023/08/31 12:56:21;;;;;;;3.38;0.95;;;;;;;;;;4989740;28;100313;-71
2023/08/31 12:58:48;;;;;;;3.03;0.80;;;;;;;;;;4991359;28;98070;-72
2023/08/31 13:01:15;;;;;;;2.53;0.70;;;;;;;;;;4992182;28;99342;-72
2023/08/31 13:03:41;;;;;;;6.13;0.90;;;;;;;;;;4988976;28;99820;-72
2023/08/31 13:06:08;;;;;;;2.95;0.90;;;;;;;;;;4973656;28;99362;-72
2023/08/31 13:08:35;;;;;;;0.82;0.70;;;;;;;;;;4971566;28;100248;-71
2023/08/31 13:11:03;;;;;;;1.27;0.60;;;;;;;;;;4999673;28;99990;-71
2023/08/31 13:13:31;;;;;;;3.85;0.95;;;;;;;;;;4987990;28;98938;-70
2023/08/31 13:15:57;;;;;;;3.92;1.20;;;;;;;;;;4988287;28;100223;-71
2023/08/31 13:18:24;;;;;;;2.92;0.80;;;;;;;;;;4987459;28;99020;-70
2023/08/31 13:20:53;;;;;;;5.18;0.98;;;;;;;;;;4988077;28;99769;-71
2023/08/31 13:23:20;;;;;;;1.10;0.80;;;;;;;;;;4992051;28;99525;-70
2023/08/31 13:25:47;;;;;;;2.08;0.80;;;;;;;;;;4975071;28;100786;-71
2023/08/31 13:28:14;;;;;;;4.22;1.08;;;;;;;;;;4968195;28;100257;-70
2023/08/31 13:30:42;;;;;;;0.73;0.70;;;;;;;;;;4966982;28;100031;-70
2023/08/31 13:33:09;;;;;;;3.05;0.60;;;;;;;;;;4969128;28;99774;-71
2023/08/31 13:35:35;;;;;;;4.00;1.02;;;;;;;;;;4968586;28;99325;-71
2023/08/31 13:38:02;;;;;;;1.10;0.73;;;;;;;;;;4985250;28;99018;-71
2023/08/31 13:40:29;;;;;;;5.10;0.80;;;;;;;;;;4988070;28;98858;-70
2023/08/31 13:43:05;;;;;;;2.03;0.82;;;;;;;;;;4987662;28;101122;-71
2023/08/31 13:45:32;;;;;;;2.75;0.80;;;;;;;;;;4990438;28;99258;-70
2023/08/31 13:47:59;;;;;;;1.13;0.82;;;;;;;;;;4988651;28;99140;-70
2023/08/31 13:50:27;;;;;;;7.97;1.00;;;;;;;;;;4987802;28;99039;-71
2023/08/31 13:52:54;;;;;;;2.40;0.98;;;;;;;;;;4982096;28;99935;-71
2023/08/31 13:55:20;;;;;;;3.58;0.93;;;;;;;;;;4967327;28;100897;-71
2023/08/31 13:57:46;;;;;;;4.78;0.80;;;;;;;;;;4968495;28;99129;-70
2023/08/31 14:00:13;;;;;;;4.70;0.90;;;;;;;;;;4968601;27;98938;-70
2023/08/31 14:02:40;;;;;;;0.68;0.68;;;;;;;;;;4967980;28;100446;-72
2023/08/31 14:05:08;;;;;;;1.60;0.90;;;;;;;;;;4976794;28;100479;-72
2023/08/31 14:07:35;;;;;;;3.13;0.75;;;;;;;;;;4986714;28;100462;-71
2023/08/31 14:10:05;;;;;;;4.82;0.90;;;;;;;;;;4988600;28;98934;-72
2023/08/31 14:12:31;;;;;;;2.45;0.55;;;;;;;;;;4987698;28;100153;-71
2023/08/31 14:14:58;;;;;;;1.63;0.80;;;;;;;;;;4986602;28;100136;-71
2023/08/31 14:17:25;;;;;;;0.80;0.80;;;;;;;;;;4969161;28;99422;-72
2023/08/31 14:19:51;;;;;;;0.73;0.73;;;;;;;;;;4966676;28;100135;-71
2023/08/31 14:22:18;;;;;;;1.67;1.25;;;;;;;;;;4967363;28;100491;-72
2023/08/31 14:24:44;;;;;;;2.38;0.80;;;;;;;;;;4967726;28;100300;-72
2023/08/31 14:27:13;;;;;;;2.20;1.08;;;;;;;;;;4970284;28;98723;-71
2023/08/31 14:29:39;;;;;;;1.60;0.80;;;;;;;;;;4986979;28;98890;-71
2023/08/31 14:32:06;;;;;;;0.65;0.65;;;;;;;;;;4986862;28;99864;-71
2023/08/31 14:34:32;;;;;;;1.30;0.90;;;;;;;;;;4967691;28;100154;-71
2023/08/31 14:37:00;;;;;;;2.85;1.35;;;;;;;;;;4968191;28;100061;-71